createdAt,value
2018-11-22T12:18:08.537Z,13.90
2018-11-22T12:20:37.067Z,13.87
2018-11-22T12:23:05.822Z,13.83
2018-11-22T12:25:34.369Z,14.97
2018-11-22T12:28:03.211Z,16.87
2018-11-22T12:30:32.825Z,33.00
2018-11-22T12:33:07.650Z,17.10
2018-11-22T12:35:41.465Z,19.20
2018-11-22T12:38:15.352Z,16.23
2018-11-22T12:40:43.900Z,19.23
2018-11-22T12:43:12.309Z,16.97
2018-11-22T12:45:40.941Z,16.47
2018-11-22T12:48:09.485Z,20.77
2018-11-22T12:50:37.960Z,17.87
2018-11-22T12:53:06.576Z,17.80
2018-11-22T12:55:34.998Z,19.57
2018-11-22T12:58:03.533Z,20.80
2018-11-22T13:00:32.083Z,20.10
2018-11-22T13:03:00.635Z,18.13
2018-11-22T13:05:29.078Z,15.90
2018-11-22T13:07:57.497Z,18.13
2018-11-22T13:10:25.903Z,20.07
2018-11-22T13:12:54.474Z,16.57
2018-11-22T13:15:23.053Z,21.93
2018-11-22T13:17:51.650Z,19.00
2018-11-22T13:20:21.183Z,16.83
2018-11-22T13:22:49.592Z,22.77
2018-11-22T13:25:19.743Z,20.70
2018-11-22T13:27:48.595Z,17.37
2018-11-22T13:30:19.007Z,17.83
2018-11-22T13:32:47.952Z,17.13
2018-11-22T13:35:17.309Z,16.67
2018-11-22T13:37:47.239Z,18.90
2018-11-22T13:40:16.010Z,16.77
2018-11-22T13:42:45.515Z,18.03
2018-11-22T13:45:16.458Z,18.97
2018-11-22T13:47:45.855Z,19.13
2018-11-22T13:50:17.019Z,20.43
2018-11-22T13:52:46.607Z,19.07
2018-11-22T13:55:15.680Z,18.67
2018-11-22T13:57:43.879Z,19.33
2018-11-22T14:00:16.254Z,19.00
2018-11-22T14:02:44.939Z,18.93
2018-11-22T14:05:13.402Z,20.13
2018-11-22T14:07:41.870Z,20.03
2018-11-22T14:10:13.533Z,17.93
2018-11-22T14:12:42.227Z,18.87
2018-11-22T14:15:16.091Z,20.70
2018-11-22T14:17:45.046Z,19.57
2018-11-22T14:20:14.940Z,19.13
2018-11-22T14:22:46.381Z,20.60
2018-11-22T14:25:15.618Z,18.80
2018-11-22T14:27:45.024Z,18.10
2018-11-22T14:30:15.187Z,17.37
2018-11-22T14:32:44.428Z,20.57
2018-11-22T14:35:14.123Z,24.83
2018-11-22T14:37:43.139Z,22.73
2018-11-22T14:40:15.104Z,18.00
2018-11-22T14:42:44.198Z,19.67
2018-11-22T14:45:13.683Z,17.83
2018-11-22T14:47:43.101Z,18.37
2018-11-22T14:50:16.484Z,17.30
2018-11-22T14:52:48.048Z,20.33
2018-11-22T14:55:16.496Z,18.13
2018-11-22T14:57:44.900Z,19.30
2018-11-22T15:00:15.155Z,18.57
2018-11-22T15:02:44.897Z,18.83
2018-11-22T15:05:14.149Z,20.33
2018-11-22T15:07:43.139Z,20.23
2018-11-22T15:10:13.273Z,18.63
2018-11-22T15:12:42.830Z,19.87
2018-11-22T15:15:14.456Z,16.50
2018-11-22T15:17:42.939Z,17.23
2018-11-22T15:20:13.429Z,18.20
2018-11-22T15:22:42.644Z,18.37
2018-11-22T15:25:12.822Z,17.80
2018-11-22T15:27:42.964Z,20.97
2018-11-22T15:30:14.233Z,21.80
2018-11-22T15:32:42.690Z,20.03
2018-11-22T15:35:13.827Z,19.77
2018-11-22T15:37:42.442Z,20.00
2018-11-22T15:40:14.102Z,20.70
2018-11-22T15:42:42.959Z,19.53
2018-11-22T15:45:14.148Z,20.47
2018-11-22T15:47:42.819Z,21.17
2018-11-22T15:50:13.658Z,20.37
2018-11-22T15:52:42.654Z,19.30
2018-11-22T15:55:11.859Z,23.87
2018-11-22T15:57:41.105Z,20.87
2018-11-22T16:00:13.139Z,19.37
2018-11-22T16:02:41.889Z,23.33
2018-11-22T16:05:11.495Z,23.83
2018-11-22T16:07:40.297Z,23.60
2018-11-22T16:10:14.347Z,26.07
2018-11-22T16:12:43.003Z,26.10
2018-11-22T16:15:15.659Z,22.60
2018-11-22T16:17:44.162Z,21.27
2018-11-22T16:20:12.686Z,22.27
2018-11-22T16:22:41.516Z,29.93
2018-11-22T16:25:11.455Z,27.00
2018-11-22T16:27:40.244Z,26.23
2018-11-22T16:30:13.297Z,20.43
2018-11-22T16:32:41.924Z,20.97
2018-11-22T16:35:12.239Z,20.87
2018-11-22T16:37:43.755Z,21.47
2018-11-22T16:40:16.027Z,21.10
2018-11-22T16:42:45.663Z,21.73
2018-11-22T16:45:20.338Z,21.97
2018-11-22T16:47:48.831Z,21.60
2018-11-22T16:50:18.803Z,19.67
2018-11-22T16:52:47.362Z,29.63
2018-11-22T16:55:16.166Z,35.47
2018-11-22T16:57:45.889Z,35.17
2018-11-22T17:00:18.991Z,33.90
2018-11-22T17:02:48.877Z,29.67
2018-11-22T17:05:17.671Z,27.20
2018-11-22T17:07:46.665Z,25.77
2018-11-22T17:10:16.598Z,26.33
2018-11-22T17:12:45.996Z,24.90
2018-11-22T17:15:15.796Z,34.73
2018-11-22T17:17:44.911Z,33.83
2018-11-22T17:20:14.630Z,42.90
2018-11-22T17:22:43.814Z,34.33
2018-11-22T17:25:15.355Z,39.77
2018-11-22T17:27:44.455Z,30.87
2018-11-22T17:30:15.406Z,35.07
2018-11-22T17:32:44.383Z,33.90
2018-11-22T17:35:15.644Z,32.87
2018-11-22T17:37:44.414Z,28.43
2018-11-22T17:40:20.326Z,27.50
2018-11-22T17:42:48.898Z,28.10
2018-11-22T17:45:21.588Z,24.30
2018-11-22T17:47:50.559Z,26.97
2018-11-22T17:50:19.755Z,35.87
2018-11-22T17:52:48.200Z,39.87
2018-11-22T17:55:20.425Z,57.80
2018-11-22T17:57:49.530Z,69.80
2018-11-22T18:00:20.471Z,81.37
2018-11-22T18:02:50.296Z,32.20
2018-11-22T18:05:18.909Z,30.20
2018-11-22T18:07:47.514Z,27.93
2018-11-22T18:10:18.806Z,30.23
2018-11-22T18:12:48.290Z,31.43
2018-11-22T18:15:18.584Z,29.77
2018-11-22T18:17:47.337Z,28.50
2018-11-22T18:20:18.531Z,36.10
2018-11-22T18:22:47.955Z,43.93
2018-11-22T18:25:17.978Z,29.17
2018-11-22T18:27:46.682Z,30.37
2018-11-22T18:30:18.811Z,25.70
2018-11-22T18:32:49.271Z,26.43
2018-11-22T18:35:17.944Z,25.07
2018-11-22T18:37:46.820Z,26.53
2018-11-22T18:40:20.240Z,25.80
2018-11-22T18:42:50.063Z,29.50
2018-11-22T18:45:24.153Z,28.10
2018-11-22T18:47:53.619Z,24.63
2018-11-22T18:50:23.948Z,23.80
2018-11-22T18:52:52.923Z,24.97
2018-11-22T18:55:22.238Z,27.00
2018-11-22T18:57:51.263Z,25.63
2018-11-22T19:00:26.358Z,31.10
2018-11-22T19:02:56.873Z,30.83
2018-11-22T19:05:26.004Z,28.80
2018-11-22T19:07:55.849Z,28.40
2018-11-22T19:10:26.310Z,25.97
2018-11-22T19:12:58.626Z,25.17
2018-11-22T19:15:29.201Z,24.23
2018-11-22T19:17:59.853Z,24.87
2018-11-22T19:20:32.976Z,26.13
2018-11-22T19:25:30.424Z,27.33
2018-11-22T19:28:01.264Z,23.40
2018-11-22T19:30:37.284Z,31.00
2018-11-22T19:33:04.167Z,26.97
2018-11-22T19:35:35.880Z,26.00
2018-11-22T19:38:05.388Z,26.67
2018-11-22T19:40:37.017Z,27.00
2018-11-22T19:43:07.456Z,26.40
2018-11-22T19:45:40.145Z,25.57
2018-11-22T19:48:10.507Z,23.63
2018-11-22T19:50:39.676Z,25.77
2018-11-22T19:53:10.849Z,26.37
2018-11-22T19:55:41.735Z,25.47
2018-11-22T19:58:12.772Z,29.20
2018-11-22T20:00:42.302Z,25.20
2018-11-22T20:03:12.241Z,27.20
2018-11-22T20:05:42.325Z,25.03
2018-11-22T20:08:14.256Z,26.07
2018-11-22T20:10:44.631Z,25.90
2018-11-22T20:13:14.053Z,25.00
2018-11-22T20:15:44.925Z,26.43
2018-11-22T20:18:14.307Z,26.73
2018-11-22T20:20:49.606Z,27.03
2018-11-22T20:23:13.380Z,25.20
2018-11-22T20:25:43.015Z,25.90
2018-11-22T20:28:12.385Z,25.87
2018-11-22T20:30:43.115Z,27.20
2018-11-22T20:33:12.558Z,25.97
2018-11-22T20:35:42.676Z,26.57
2018-11-22T20:38:12.678Z,29.57
2018-11-22T20:40:41.979Z,25.93
2018-11-22T20:43:12.442Z,28.27
2018-11-22T20:45:41.660Z,29.03
2018-11-22T20:48:12.376Z,28.27
2018-11-22T20:50:42.109Z,25.93
2018-11-22T20:53:11.686Z,25.90
2018-11-22T20:55:41.524Z,27.43
2018-11-22T20:58:10.980Z,26.33
2018-11-22T21:00:42.352Z,25.60
2018-11-22T21:03:11.910Z,26.97
2018-11-22T21:05:41.449Z,24.30
2018-11-22T21:08:11.246Z,28.73
2018-11-22T21:10:40.416Z,26.47
2018-11-22T21:13:11.045Z,26.53
2018-11-22T21:15:40.281Z,24.53
2018-11-22T21:18:09.883Z,26.67
2018-11-22T21:20:40.493Z,25.10
2018-11-22T21:23:09.791Z,26.40
2018-11-22T21:25:39.918Z,27.70
2018-11-22T21:28:09.749Z,25.57
2018-11-22T21:30:39.784Z,29.10
2018-11-22T21:33:09.063Z,28.50
2018-11-22T21:35:38.191Z,31.60
2018-11-22T21:38:07.986Z,27.53
2018-11-22T21:40:37.261Z,30.40
2018-11-22T21:43:06.206Z,29.63
2018-11-22T21:45:35.585Z,27.43
2018-11-22T21:48:04.457Z,29.83
2018-11-22T21:50:33.896Z,31.40
2018-11-22T21:53:02.382Z,32.40
2018-11-22T21:55:31.218Z,28.90
2018-11-22T21:58:00.981Z,29.53
2018-11-22T22:00:34.473Z,35.10
2018-11-22T22:03:04.631Z,32.07
2018-11-22T22:05:33.159Z,31.27
2018-11-22T22:08:01.663Z,31.57
2018-11-22T22:10:30.226Z,34.73
2018-11-22T22:12:59.057Z,30.77
2018-11-22T22:15:28.774Z,30.57
2018-11-22T22:17:57.260Z,32.53
2018-11-22T22:20:27.259Z,34.63
2018-11-22T22:22:55.691Z,33.10
2018-11-22T22:25:25.048Z,33.37
2018-11-22T22:27:54.003Z,34.47
2018-11-22T22:30:23.864Z,31.90
2018-11-22T22:32:54.153Z,32.83
2018-11-22T22:35:22.572Z,33.13
2018-11-22T22:37:51.364Z,32.47
2018-11-22T22:40:22.203Z,32.73
2018-11-22T22:42:51.649Z,32.67
2018-11-22T22:45:21.103Z,33.10
2018-11-22T22:47:50.280Z,34.90
2018-11-22T22:50:21.855Z,35.80
2018-11-22T22:52:51.652Z,38.33
2018-11-22T22:55:20.250Z,37.80
2018-11-22T22:57:48.699Z,39.20
2018-11-22T23:00:24.936Z,37.87
2018-11-22T23:02:54.689Z,36.30
2018-11-22T23:05:23.799Z,39.73
2018-11-22T23:07:52.502Z,38.93
2018-11-22T23:10:21.478Z,37.30
2018-11-22T23:12:49.940Z,34.83
2018-11-22T23:15:19.868Z,36.63
2018-11-22T23:17:48.413Z,37.97
2018-11-22T23:20:20.019Z,40.37
2018-11-22T23:22:48.918Z,33.30
2018-11-22T23:25:18.518Z,39.13
2018-11-22T23:27:47.004Z,37.53
2018-11-22T23:30:23.970Z,35.33
2018-11-22T23:32:53.692Z,34.50
2018-11-22T23:35:22.518Z,41.27
2018-11-22T23:37:51.566Z,38.27
2018-11-22T23:40:21.257Z,38.63
2018-11-22T23:42:49.703Z,37.13
2018-11-22T23:45:19.378Z,36.10
2018-11-22T23:47:48.270Z,33.90
2018-11-22T23:50:21.158Z,37.33
2018-11-22T23:52:51.116Z,35.67
2018-11-22T23:55:19.703Z,39.50
2018-11-22T23:57:48.243Z,36.90
